Time;durP1;ratioP1;P1;durP2;ratioP2;P2;SDS_P1;SDS_P2;PMS_P1;PMS_P2;Temp;Humidity;BMP_temperature;BMP_pressure;BME280_temperature;BME280_humidity;BME280_pressure;Samples;Min_cycle;Max_cycle;Signal;HPM_P1;HPM_P2
2022/01/16 00:07:58;;;;;;;151.85;24.70;;;;;;;1.89;91.14;102302.09;10506555;28;20476;-85
2022/01/16 00:13:06;;;;;;;108.60;22.80;;;;;;;1.79;89.69;102299.53;10487671;28;20128;-85
2022/01/16 00:18:18;;;;;;;138.98;25.17;;;;;;;1.67;91.09;102317.16;10493980;28;20040;-85
2022/01/16 00:23:25;;;;;;;113.55;23.70;;;;;;;1.58;91.07;102329.97;10511496;28;20102;-85
2022/01/16 00:28:27;;;;;;;145.73;27.08;;;;;;;1.83;91.08;102341.31;10478584;28;20109;-84
2022/01/16 00:33:32;;;;;;;152.30;27.20;;;;;;;1.96;89.73;102328.88;10466170;28;20474;-85
2022/01/16 00:38:33;;;;;;;131.00;24.95;;;;;;;1.80;90.67;102329.25;10480727;28;20044;-83
2022/01/16 00:43:36;;;;;;;138.90;26.25;;;;;;;1.88;90.02;102335.88;10510878;28;20048;-83
2022/01/16 00:48:39;;;;;;;129.98;24.98;;;;;;;2.07;90.04;102327.25;10519152;28;20500;-81
2022/01/16 00:53:44;;;;;;;123.20;26.23;;;;;;;1.85;90.08;102329.66;10482101;28;20519;-81
2022/01/16 00:58:46;;;;;;;153.27;25.73;;;;;;;1.90;89.73;102298.75;10487864;28;20135;-82
2022/01/16 01:03:47;;;;;;;117.63;24.65;;;;;;;1.95;90.02;102293.19;10462983;28;20053;-82
2022/01/16 01:08:49;;;;;;;126.30;27.90;;;;;;;1.91;89.93;102269.16;10486798;28;20102;-82
2022/01/16 01:13:57;;;;;;;138.18;28.25;;;;;;;2.05;89.47;102293.16;10510170;28;20412;-82
2022/01/16 01:18:59;;;;;;;127.82;28.05;;;;;;;2.18;89.54;102295.06;10480912;28;20071;-82
2022/01/16 01:24:01;;;;;;;141.73;27.52;;;;;;;2.01;89.79;102301.31;10513086;28;20075;-82
2022/01/16 01:29:03;;;;;;;147.82;29.23;;;;;;;2.07;89.67;102306.91;10488707;28;20048;-82
2022/01/16 01:34:07;;;;;;;143.00;31.40;;;;;;;1.98;89.91;102314.66;10487732;28;20455;-81
2022/01/16 01:39:09;;;;;;;140.02;29.63;;;;;;;1.88;89.47;102285.03;10481582;28;20048;-81
2022/01/16 01:54:51;;;;;;;143.75;31.08;;;;;;;1.72;89.46;102251.50;10508419;28;20044;-81
2022/01/16 01:59:53;;;;;;;166.98;31.83;;;;;;;1.81;90.14;102272.59;10498801;28;20087;-82
2022/01/16 02:04:55;;;;;;;173.63;32.17;;;;;;;1.99;89.79;102274.88;10502636;28;20518;-81
2022/01/16 02:09:56;;;;;;;165.23;31.17;;;;;;;1.93;89.54;102279.44;10492223;28;20090;-81
2022/01/16 02:15:07;;;;;;;150.60;30.52;;;;;;;1.63;89.78;102271.03;10490658;28;20132;-81
2022/01/16 02:31:02;;;;;;;189.63;33.00;;;;;;;1.64;90.86;102282.97;10530366;28;20106;-81
2022/01/16 02:36:04;;;;;;;171.77;32.15;;;;;;;1.76;90.46;102273.84;10479042;28;20085;-81
2022/01/16 02:41:06;;;;;;;183.75;31.08;;;;;;;1.80;89.87;102270.81;10489486;28;20071;-81
2022/01/16 02:51:21;;;;;;;158.48;31.27;;;;;;;1.75;89.64;102272.06;10525588;28;20043;-82
2022/01/16 02:56:25;;;;;;;148.00;31.20;;;;;;;1.77;88.93;102282.38;10492557;28;20079;-81
2022/01/16 03:01:26;;;;;;;182.70;34.20;;;;;;;1.76;89.44;102289.09;10480954;28;20064;-80
2022/01/16 03:06:28;;;;;;;166.77;33.17;;;;;;;1.57;89.80;102285.00;10479330;28;20502;-81
2022/01/16 03:11:35;;;;;;;217.55;35.28;;;;;;;1.39;90.37;102285.97;10492584;28;20123;-80
2022/01/16 03:16:41;;;;;;;175.73;31.75;;;;;;;1.53;90.02;102265.16;10485045;28;20079;-81
2022/01/16 03:21:55;;;;;;;163.10;31.92;;;;;;;1.49;90.25;102263.16;10507549;28;20059;-80
2022/01/16 03:27:03;;;;;;;190.63;30.98;;;;;;;1.48;89.68;102271.53;10487741;28;20088;-81
2022/01/16 03:32:07;;;;;;;217.95;29.13;;;;;;;1.35;90.72;102256.00;10471504;28;20128;-82
2022/01/16 03:37:09;;;;;;;223.20;32.80;;;;;;;1.66;89.90;102256.06;10496642;28;20054;-82
2022/01/16 03:42:11;;;;;;;255.90;33.25;;;;;;;1.37;90.98;102236.72;10502626;28;20478;-81
2022/01/16 03:47:12;;;;;;;222.20;31.70;;;;;;;1.50;89.87;102248.78;10507029;28;20047;-81
2022/01/16 03:52:14;;;;;;;222.38;30.38;;;;;;;1.41;90.54;102231.13;10514064;28;20068;-81
2022/01/16 03:57:15;;;;;;;248.05;32.20;;;;;;;1.41;90.68;102231.13;10490990;28;20144;-81
2022/01/16 04:02:17;;;;;;;263.85;32.47;;;;;;;1.35;91.47;102230.63;10494348;28;20065;-81
2022/01/16 04:07:26;;;;;;;259.85;31.88;;;;;;;1.51;90.90;102238.78;10480763;28;20071;-81
2022/01/16 04:12:27;;;;;;;207.82;32.83;;;;;;;1.25;90.71;102226.41;10496677;28;20081;-81
2022/01/16 04:17:29;;;;;;;202.73;33.53;;;;;;;1.49;90.99;102227.59;10498537;28;20075;-81
2022/01/16 04:22:31;;;;;;;273.05;33.95;;;;;;;1.46;91.19;102227.31;10491178;28;20127;-80
2022/01/16 04:27:33;;;;;;;227.00;33.08;;;;;;;1.38;91.01;102220.69;10481723;28;20104;-81
2022/01/16 04:32:34;;;;;;;266.35;33.25;;;;;;;1.57;90.83;102221.50;10476373;28;20045;-81
2022/01/16 04:37:36;;;;;;;299.48;35.95;;;;;;;1.58;91.46;102228.38;10515058;28;20058;-80
2022/01/16 04:48:17;;;;;;;181.30;31.00;;;;;;;1.47;91.48;102236.72;10510655;28;20081;-81
2022/01/16 04:53:19;;;;;;;209.93;32.53;;;;;;;1.57;90.79;102240.91;10510641;28;20120;-80
2022/01/16 04:58:22;;;;;;;247.57;33.45;;;;;;;1.77;90.84;102224.81;10471039;28;20106;-81
2022/01/16 05:03:28;;;;;;;231.00;33.72;;;;;;;1.54;91.26;102216.16;10468477;28;20476;-82
2022/01/16 05:08:31;;;;;;;196.35;32.25;;;;;;;1.69;91.06;102208.94;10479582;28;20496;-80
2022/01/16 05:18:41;;;;;;;192.73;33.20;;;;;;;1.70;90.87;102197.09;10487853;28;20188;-81
2022/01/16 05:23:43;;;;;;;217.52;32.35;;;;;;;1.89;90.92;102190.25;10489490;28;20052;-80
2022/01/16 05:28:46;;;;;;;175.65;30.00;;;;;;;1.60;90.94;102181.88;10469514;28;20449;-81
2022/01/16 05:33:49;;;;;;;206.20;33.80;;;;;;;1.69;91.46;102180.06;10470124;28;20139;-81
2022/01/16 05:38:53;;;;;;;203.18;33.50;;;;;;;1.75;91.01;102185.66;10465678;28;20562;-81
2022/01/16 05:43:54;;;;;;;217.93;33.22;;;;;;;1.86;91.07;102182.38;10469816;28;20041;-81
2022/01/16 05:48:56;;;;;;;187.60;32.28;;;;;;;1.64;90.83;102189.84;10514223;28;20077;-81
2022/01/16 05:53:58;;;;;;;194.68;32.75;;;;;;;1.85;90.75;102183.13;10474525;28;20120;-80
2022/01/16 05:58:59;;;;;;;171.02;30.73;;;;;;;1.81;91.27;102170.94;10497365;28;20054;-81
2022/01/16 06:04:01;;;;;;;190.45;32.72;;;;;;;1.94;90.49;102166.84;10491344;28;20445;-81
2022/01/16 06:09:02;;;;;;;163.70;29.42;;;;;;;1.72;90.91;102160.03;10488014;28;20094;-81
2022/01/16 06:14:04;;;;;;;143.60;31.02;;;;;;;1.67;91.07;102166.38;10485511;28;20048;-81
2022/01/16 06:19:09;;;;;;;175.63;31.13;;;;;;;1.72;91.28;102167.63;10489487;28;20083;-81
2022/01/16 06:24:12;;;;;;;152.50;30.75;;;;;;;1.76;91.12;102168.78;10482780;28;20053;-81
2022/01/16 06:29:18;;;;;;;148.20;31.40;;;;;;;1.80;91.36;102169.16;10501685;28;20049;-80
2022/01/16 06:34:19;;;;;;;172.55;33.08;;;;;;;1.86;90.89;102174.75;10484788;28;20526;-81
2022/01/16 06:39:22;;;;;;;188.75;32.03;;;;;;;1.87;91.74;102191.78;10471575;28;20040;-82
2022/01/16 06:44:24;;;;;;;178.10;32.67;;;;;;;1.98;91.06;102194.28;10479716;28;20040;-82
2022/01/16 06:49:25;;;;;;;185.40;35.28;;;;;;;1.96;90.72;102195.84;10487168;28;20083;-81
2022/01/16 06:54:27;;;;;;;191.55;32.67;;;;;;;1.85;91.19;102198.38;10498187;28;20076;-80
2022/01/16 06:59:28;;;;;;;180.05;34.53;;;;;;;1.98;90.63;102197.72;10501949;28;20060;-81
2022/01/16 07:04:30;;;;;;;195.05;37.03;;;;;;;2.10;90.51;102207.09;10477786;28;20399;-80
2022/01/16 07:09:31;;;;;;;163.93;33.17;;;;;;;1.97;90.44;102207.78;10469653;28;20037;-81
2022/01/16 07:14:33;;;;;;;165.80;34.97;;;;;;;2.00;90.25;102211.47;10480801;28;20051;-82
2022/01/16 07:19:35;;;;;;;129.75;29.85;;;;;;;1.99;90.28;102216.41;10477672;28;20059;-80
2022/01/16 07:24:37;;;;;;;150.38;33.67;;;;;;;2.10;90.39;102229.97;10479456;28;20472;-81
2022/01/16 07:29:38;;;;;;;181.65;36.20;;;;;;;2.14;89.73;102232.03;10504715;28;20139;-82
2022/01/16 07:34:42;;;;;;;177.73;36.83;;;;;;;2.10;90.50;102230.88;10494018;28;20067;-81
2022/01/16 07:39:44;;;;;;;182.00;38.28;;;;;;;2.18;90.22;102239.13;10516354;28;20143;-81
2022/01/16 07:44:45;;;;;;;141.13;34.83;;;;;;;2.10;90.60;102255.41;10479731;28;20128;-81
2022/01/16 07:49:48;;;;;;;189.02;39.90;;;;;;;2.42;89.55;102258.03;10498405;28;20496;-81
2022/01/16 07:55:11;;;;;;;193.05;39.28;;;;;;;2.40;89.41;102257.03;10487246;28;20057;-81
2022/01/16 08:00:12;;;;;;;189.27;40.75;;;;;;;2.43;89.60;102272.53;10514480;28;20064;-81
2022/01/16 08:05:15;;;;;;;183.48;40.30;;;;;;;2.61;88.81;102287.50;10524870;28;20139;-81
2022/01/16 08:10:19;;;;;;;173.70;40.65;;;;;;;2.57;89.58;102277.88;10516865;28;20083;-81
2022/01/16 08:15:20;;;;;;;190.02;41.42;;;;;;;2.74;89.38;102272.44;10480531;28;20063;-81
2022/01/16 08:20:22;;;;;;;188.00;41.03;;;;;;;2.64;89.27;102264.88;10459649;28;20041;-81
2022/01/16 08:25:29;;;;;;;169.20;40.55;;;;;;;2.59;89.02;102259.41;10478497;28;20452;-81
2022/01/16 08:30:30;;;;;;;154.77;40.63;;;;;;;2.74;88.66;102256.31;10495108;28;20118;-81
2022/01/16 08:35:32;;;;;;;173.77;42.30;;;;;;;2.81;88.60;102251.81;10494926;28;20072;-82
2022/01/16 08:40:33;;;;;;;164.65;40.38;;;;;;;2.81;88.73;102241.63;10478054;28;20230;-82
2022/01/16 08:45:37;;;;;;;171.45;41.67;;;;;;;2.93;88.50;102249.34;10477997;28;20143;-81
2022/01/16 08:50:39;;;;;;;170.45;42.08;;;;;;;3.01;88.74;102255.06;10524434;28;20487;-82
2022/01/16 08:55:40;;;;;;;142.15;41.00;;;;;;;3.19;88.56;102250.50;10519480;28;20093;-82
2022/01/16 09:00:43;;;;;;;146.00;38.97;;;;;;;3.31;87.84;102268.41;10519131;28;20040;-82
2022/01/16 09:05:46;;;;;;;154.25;41.28;;;;;;;3.52;87.91;102270.81;10535994;28;20109;-81
2022/01/16 09:10:48;;;;;;;156.68;39.05;;;;;;;3.64;87.41;102266.66;10518652;28;20048;-82
2022/01/16 09:15:52;;;;;;;134.48;38.00;;;;;;;3.68;87.07;102273.78;10519368;28;20101;-82
2022/01/16 09:20:56;;;;;;;148.98;38.88;;;;;;;3.75;86.89;102286.22;10519110;28;20126;-81
2022/01/16 09:26:00;;;;;;;130.60;39.50;;;;;;;3.98;86.38;102284.50;10518760;28;20051;-82
2022/01/16 09:31:01;;;;;;;129.07;37.97;;;;;;;3.99;86.27;102286.25;10535770;28;20079;-82
2022/01/16 09:36:08;;;;;;;120.70;37.47;;;;;;;4.07;85.80;102295.38;10543780;28;20067;-82
2022/01/16 09:41:10;;;;;;;106.13;33.58;;;;;;;4.08;86.06;102292.06;10527079;28;20173;-82
2022/01/16 09:46:12;;;;;;;124.70;35.72;;;;;;;4.17;85.38;102301.16;10511697;28;20465;-82
2022/01/16 09:51:14;;;;;;;117.82;37.22;;;;;;;4.30;85.58;102301.28;10526819;28;20044;-81
2022/01/16 09:56:22;;;;;;;108.38;35.60;;;;;;;4.30;85.27;102303.84;10527754;28;20105;-83
2022/01/16 10:01:24;;;;;;;105.75;33.45;;;;;;;4.40;84.64;102302.84;10543091;28;20303;-82
2022/01/16 10:06:26;;;;;;;88.53;32.22;;;;;;;4.45;84.32;102307.53;10543210;28;20052;-82
2022/01/16 10:11:40;;;;;;;94.35;31.98;;;;;;;4.51;84.30;102318.94;10525388;28;20076;-81
2022/01/16 10:17:29;;;;;;;72.72;28.73;;;;;;;4.53;84.45;102328.53;10525733;28;20043;-82
2022/01/16 10:22:42;;;;;;;86.30;31.30;;;;;;;4.63;84.30;102332.63;10541893;28;20044;-81
2022/01/16 10:27:45;;;;;;;90.72;31.60;;;;;;;4.74;84.37;102341.06;10524824;28;20052;-81
2022/01/16 10:32:47;;;;;;;83.10;32.10;;;;;;;4.80;83.92;102345.75;10558296;28;20109;-80
2022/01/16 10:37:52;;;;;;;84.72;31.42;;;;;;;4.81;84.51;102355.16;10558236;28;20142;-83
2022/01/16 10:42:58;;;;;;;90.57;31.23;;;;;;;4.88;84.88;102353.19;10540452;28;20044;-81
2022/01/16 10:48:01;;;;;;;76.50;29.25;;;;;;;4.86;84.94;102353.84;10520213;28;20118;-82
2022/01/16 10:53:17;;;;;;;107.53;30.75;;;;;;;4.92;84.98;102344.06;10523376;28;20043;-82
2022/01/16 10:58:24;;;;;;;99.53;30.58;;;;;;;4.99;84.72;102340.31;10506805;28;20529;-81
2022/01/16 11:03:28;;;;;;;85.53;28.20;;;;;;;5.04;84.47;102344.94;10557409;28;20048;-81
2022/01/16 11:08:30;;;;;;;95.53;31.92;;;;;;;5.25;84.83;102349.78;10523117;28;20143;-82
2022/01/16 11:13:34;;;;;;;85.97;30.70;;;;;;;5.26;85.04;102351.56;10523240;28;20081;-81
2022/01/16 11:18:38;;;;;;;105.22;30.25;;;;;;;5.22;85.09;102352.16;10523191;28;20077;-81
2022/01/16 11:29:13;;;;;;;96.13;29.98;;;;;;;5.35;85.28;102362.47;10513592;28;20040;-81
2022/01/16 11:34:14;;;;;;;102.80;31.38;;;;;;;5.39;84.90;102359.34;10522454;28;20565;-81
2022/01/16 11:39:16;;;;;;;97.45;31.33;;;;;;;5.53;84.88;102356.88;10556012;28;20071;-83
2022/01/16 11:44:23;;;;;;;122.07;31.25;;;;;;;5.51;84.95;102355.88;10554176;28;20127;-82
2022/01/16 11:49:41;;;;;;;99.93;31.67;;;;;;;5.61;84.68;102355.75;10508974;28;20113;-82
2022/01/16 11:54:50;;;;;;;112.68;32.13;;;;;;;5.44;84.76;102356.22;10522033;28;20487;-81
2022/01/16 12:00:14;;;;;;;101.15;31.63;;;;;;;5.48;84.98;102354.00;10555365;28;20052;-82
2022/01/16 12:05:26;;;;;;;99.10;30.63;;;;;;;5.39;84.67;102364.47;10492249;28;20482;-82
2022/01/16 12:10:40;;;;;;;85.13;30.75;;;;;;;5.34;84.90;102368.34;10477869;28;20405;-82
2022/01/16 12:15:41;;;;;;;116.50;33.05;;;;;;;5.34;84.75;102365.78;10461598;28;20143;-84
2022/01/16 12:20:43;;;;;;;119.47;33.05;;;;;;;5.41;84.10;102362.00;10510603;28;20460;-84
2022/01/16 12:25:51;;;;;;;129.82;33.70;;;;;;;5.42;84.17;102368.00;10477601;28;20118;-84
2022/01/16 12:31:02;;;;;;;118.05;33.15;;;;;;;5.30;84.70;102371.47;10493934;28;20430;-82
2022/01/16 12:36:13;;;;;;;127.95;32.80;;;;;;;5.28;84.19;102355.13;10477213;28;20044;-83
2022/01/16 12:41:37;;;;;;;123.35;33.95;;;;;;;5.32;84.02;102362.25;10510333;28;20055;-84
2022/01/16 12:46:48;;;;;;;132.63;33.55;;;;;;;5.31;84.30;102364.69;10465400;28;20135;-83
2022/01/16 12:51:52;;;;;;;124.72;34.10;;;;;;;5.34;83.79;102367.47;10518232;28;20047;-83
2022/01/16 12:57:04;;;;;;;115.40;32.72;;;;;;;5.36;84.05;102359.13;10552163;28;20472;-83
2022/01/16 13:02:21;;;;;;;134.68;34.92;;;;;;;5.49;84.11;102365.09;10516457;28;20047;-82
2022/01/16 13:07:22;;;;;;;124.60;33.67;;;;;;;5.44;84.32;102357.09;10492882;28;20072;-83
2022/01/16 13:12:25;;;;;;;110.82;31.48;;;;;;;5.25;84.07;102367.69;10509535;28;20148;-83
2022/01/16 13:17:30;;;;;;;123.63;30.58;;;;;;;5.21;84.35;102369.13;10476462;28;20056;-83
2022/01/16 13:22:37;;;;;;;115.38;30.42;;;;;;;5.18;84.69;102368.94;10475849;28;20094;-84
2022/01/16 13:27:44;;;;;;;106.82;28.63;;;;;;;5.22;84.93;102376.03;10493548;28;20095;-82
2022/01/16 13:32:45;;;;;;;123.38;31.92;;;;;;;5.37;84.63;102371.13;10475810;28;20048;-83
2022/01/16 13:37:49;;;;;;;125.68;31.38;;;;;;;5.35;84.60;102357.34;10508970;28;20135;-84
2022/01/16 13:43:02;;;;;;;133.02;32.42;;;;;;;5.40;84.56;102350.88;10475977;28;20060;-83
2022/01/16 13:48:10;;;;;;;125.03;31.63;;;;;;;5.45;84.45;102375.91;10501661;28;20048;-83
2022/01/16 13:53:16;;;;;;;128.88;31.63;;;;;;;5.55;85.01;102381.75;10517188;28;20399;-84
2022/01/16 13:58:21;;;;;;;116.35;32.33;;;;;;;5.52;84.54;102376.41;10550949;28;20048;-84
2022/01/16 14:03:25;;;;;;;140.95;33.97;;;;;;;5.54;84.32;102374.00;10505145;28;20086;-84
2022/01/16 14:08:30;;;;;;;132.43;32.50;;;;;;;5.51;84.38;102372.09;10491823;28;20503;-83
2022/01/16 14:13:32;;;;;;;135.73;32.85;;;;;;;5.56;85.18;102364.75;10492346;28;20094;-83
2022/01/16 14:23:54;;;;;;;;;;;;;;;5.53;84.61;102383.31;10482888;28;20491;-83
2022/01/16 14:28:59;;;;;;;103.85;29.25;;;;;;;5.56;84.55;102398.88;10481864;28;19963;-83
2022/01/16 14:34:00;;;;;;;117.20;29.17;;;;;;;5.62;84.34;102393.28;10498763;28;20703;-84
2022/01/16 14:39:19;;;;;;;113.72;30.30;;;;;;;5.70;84.60;102384.47;10480542;28;20045;-84
2022/01/16 14:44:39;;;;;;;110.25;31.60;;;;;;;5.68;84.47;102398.84;10474902;28;20473;-84
2022/01/16 14:49:43;;;;;;;110.05;29.85;;;;;;;5.57;84.45;102409.97;10494709;28;20101;-84
2022/01/16 14:54:47;;;;;;;107.07;30.15;;;;;;;5.63;84.56;102420.63;10538929;28;20142;-85
2022/01/16 14:59:51;;;;;;;104.60;28.73;;;;;;;5.53;84.16;102424.22;10522303;28;20158;-83
2022/01/16 15:04:52;;;;;;;96.80;28.00;;;;;;;5.66;84.42;102436.22;10497718;28;20047;-84
2022/01/16 15:09:56;;;;;;;87.95;28.17;;;;;;;5.58;84.05;102432.22;10480304;28;20139;-82
2022/01/16 15:14:58;;;;;;;91.38;26.75;;;;;;;5.50;84.55;102439.34;10498300;28;20072;-83
2022/01/16 15:20:04;;;;;;;96.68;29.08;;;;;;;5.52;84.34;102452.25;10479949;28;20052;-83
2022/01/16 15:25:07;;;;;;;82.70;27.98;;;;;;;5.49;84.40;102446.91;10496711;28;20522;-82
2022/01/16 15:30:13;;;;;;;84.22;26.52;;;;;;;5.43;84.13;102452.47;10478832;28;20052;-84
2022/01/16 15:35:17;;;;;;;79.90;27.20;;;;;;;5.60;83.78;102451.13;10479651;28;20091;-85
2022/01/16 15:40:19;;;;;;;94.15;28.20;;;;;;;5.60;84.06;102456.22;10462601;28;20419;-85
2022/01/16 15:45:24;;;;;;;79.72;26.58;;;;;;;5.52;84.84;102457.34;10495765;28;20503;-85
2022/01/16 15:50:27;;;;;;;86.32;27.33;;;;;;;5.46;84.91;102452.69;10535260;28;20044;-84
2022/01/16 15:55:28;;;;;;;84.07;27.25;;;;;;;5.46;85.19;102456.91;10554421;28;20113;-86
2022/01/16 16:00:30;;;;;;;75.03;26.00;;;;;;;5.54;84.66;102460.91;10537116;28;20075;-85
2022/01/16 16:05:31;;;;;;;80.95;27.00;;;;;;;5.47;84.63;102463.81;10507999;28;20041;-84
2022/01/16 16:10:36;;;;;;;71.88;24.42;;;;;;;5.59;85.33;102474.00;10478040;28;20408;-86
2022/01/16 16:15:38;;;;;;;75.40;26.40;;;;;;;5.43;86.46;102467.81;10461812;28;20052;-86
2022/01/16 16:20:41;;;;;;;77.03;26.17;;;;;;;5.31;87.13;102465.25;10477775;28;20055;-84
2022/01/16 16:25:43;;;;;;;70.00;26.52;;;;;;;5.34;87.14;102468.03;10495433;28;20055;-85
2022/01/16 16:30:44;;;;;;;81.07;27.45;;;;;;;5.35;87.24;102469.81;10477552;28;20052;-84
2022/01/16 16:35:46;;;;;;;73.43;26.75;;;;;;;5.45;87.16;102483.25;10477781;28;20102;-84
2022/01/16 16:40:47;;;;;;;71.80;26.00;;;;;;;5.37;87.29;102493.81;10488748;28;20060;-85
2022/01/16 16:45:50;;;;;;;64.68;24.95;;;;;;;5.33;87.81;102516.47;10491048;28;20037;-84
2022/01/16 16:50:51;;;;;;;73.40;26.33;;;;;;;5.48;86.70;102524.34;10482110;28;20176;-83
2022/01/16 16:55:53;;;;;;;64.53;27.02;;;;;;;5.52;86.90;102523.81;10465156;28;20048;-85
2022/01/16 17:00:54;;;;;;;77.05;27.70;;;;;;;5.56;86.75;102536.03;10473124;28;20496;-83
2022/01/16 17:05:56;;;;;;;68.47;26.08;;;;;;;5.54;87.24;102535.94;10484019;28;20597;-83
2022/01/16 17:10:58;;;;;;;76.85;28.55;;;;;;;5.69;86.99;102538.72;10481028;28;20056;-84
2022/01/16 17:16:00;;;;;;;71.70;27.17;;;;;;;5.65;86.78;102530.72;10472447;28;20056;-84
2022/01/16 17:21:02;;;;;;;75.32;29.20;;;;;;;5.76;86.72;102536.59;10489647;28;20496;-84
2022/01/16 17:26:06;;;;;;;79.45;29.52;;;;;;;5.74;86.25;102536.47;10502875;28;20075;-85
2022/01/16 17:31:08;;;;;;;83.68;29.27;;;;;;;5.49;87.06;102552.63;10509603;28;20071;-85
2022/01/16 17:36:10;;;;;;;83.22;27.90;;;;;;;5.62;87.31;102556.94;10486541;28;20033;-85
2022/01/16 17:41:12;;;;;;;80.93;28.33;;;;;;;5.62;86.74;102567.16;10493649;28;20231;-84
2022/01/16 17:46:13;;;;;;;89.95;31.20;;;;;;;5.86;86.35;102577.41;10492741;28;20453;-83
2022/01/16 17:51:15;;;;;;;89.60;30.95;;;;;;;5.93;86.86;102581.28;10499291;28;20067;-83
2022/01/16 17:56:18;;;;;;;101.35;32.45;;;;;;;5.90;86.94;102593.84;10482073;28;20450;-83
2022/01/16 18:01:21;;;;;;;95.55;30.25;;;;;;;5.85;87.19;102603.75;10492810;28;20070;-83
2022/01/16 18:06:33;;;;;;;101.72;32.03;;;;;;;5.92;87.81;102618.75;10500619;28;20044;-83
2022/01/16 18:11:39;;;;;;;93.18;31.40;;;;;;;5.99;87.77;102615.03;10516019;28;20083;-83
2022/01/16 18:16:41;;;;;;;118.07;32.17;;;;;;;5.96;87.47;102613.09;10498495;28;20044;-82
2022/01/16 18:21:42;;;;;;;105.60;32.65;;;;;;;5.95;87.29;102608.75;10512493;28;20498;-83
2022/01/16 18:26:47;;;;;;;99.38;31.30;;;;;;;5.94;87.01;102626.56;10493448;28;20086;-83
2022/01/16 18:31:49;;;;;;;99.57;32.08;;;;;;;5.96;87.26;102636.13;10450990;28;20478;-84
2022/01/16 18:36:52;;;;;;;99.47;31.67;;;;;;;5.96;87.04;102637.78;10469488;28;20049;-84
2022/01/16 18:41:54;;;;;;;110.15;33.50;;;;;;;6.09;87.12;102637.03;10475483;28;20095;-82
2022/01/16 18:46:58;;;;;;;98.85;31.35;;;;;;;5.92;86.51;102644.34;10487631;28;20449;-82
2022/01/16 18:51:59;;;;;;;113.32;33.88;;;;;;;6.07;86.84;102659.09;10497694;28;20036;-84
2022/01/16 18:57:18;;;;;;;119.55;33.95;;;;;;;6.16;86.78;102669.97;10495754;28;20484;-83
2022/01/16 19:02:19;;;;;;;111.32;33.42;;;;;;;6.01;86.99;102654.41;10505561;28;20045;-83
2022/01/16 19:07:21;;;;;;;107.18;33.08;;;;;;;6.16;86.22;102669.97;10481517;28;20049;-84
2022/01/16 19:12:23;;;;;;;103.85;32.90;;;;;;;6.09;86.79;102666.09;10470923;28;20041;-84
2022/01/16 19:17:26;;;;;;;105.05;33.88;;;;;;;6.14;86.80;102658.75;10489303;28;20082;-82
2022/01/16 19:22:28;;;;;;;105.43;33.20;;;;;;;6.13;86.41;102668.09;10484631;28;20082;-84
2022/01/16 19:27:30;;;;;;;89.43;30.77;;;;;;;6.05;87.15;102671.75;10480734;28;20106;-83
2022/01/16 19:32:36;;;;;;;106.95;32.63;;;;;;;6.18;86.46;102671.84;10498700;28;20044;-83
2022/01/16 19:37:38;;;;;;;107.63;31.90;;;;;;;6.13;86.83;102674.88;10521656;28;20113;-84
2022/01/16 19:42:59;;;;;;;109.38;32.97;;;;;;;6.03;86.48;102681.88;10537357;28;20045;-83
2022/01/16 19:48:04;;;;;;;105.53;34.30;;;;;;;6.13;86.88;102668.09;10501198;28;20087;-83
2022/01/16 19:53:05;;;;;;;99.82;31.95;;;;;;;6.24;86.79;102686.78;10520308;28;20499;-82
2022/01/16 19:58:07;;;;;;;91.70;32.53;;;;;;;6.19;86.51;102693.25;10521883;28;20105;-84
2022/01/16 20:03:09;;;;;;;93.85;31.85;;;;;;;6.29;87.33;102707.59;10517080;28;20044;-81
2022/01/16 20:08:12;;;;;;;98.93;32.80;;;;;;;6.17;87.64;102717.81;10479362;28;20049;-83
2022/01/16 20:13:14;;;;;;;97.72;31.25;;;;;;;6.19;87.65;102711.16;10462512;28;20136;-83
2022/01/16 20:18:16;;;;;;;86.22;31.23;;;;;;;6.22;88.03;102725.84;10479058;28;20048;-83
2022/01/16 20:23:17;;;;;;;87.35;30.52;;;;;;;6.25;87.97;102731.19;10478783;28;20389;-82
2022/01/16 20:28:19;;;;;;;88.78;31.75;;;;;;;6.38;87.77;102735.50;10527124;28;20521;-85
2022/01/16 20:33:21;;;;;;;91.82;30.38;;;;;;;6.42;87.22;102745.22;10507993;28;20114;-85
2022/01/16 20:38:23;;;;;;;84.90;29.10;;;;;;;6.47;87.16;102749.00;10512136;28;20048;-83
2022/01/16 20:43:25;;;;;;;81.55;29.15;;;;;;;6.29;88.17;102751.97;10515068;28;20131;-83
2022/01/16 20:48:27;;;;;;;82.70;29.52;;;;;;;6.29;87.98;102753.66;10507809;28;20127;-82
2022/01/16 20:53:32;;;;;;;82.75;28.88;;;;;;;6.35;88.18;102759.22;10536569;28;20044;-84
2022/01/16 20:58:35;;;;;;;68.38;25.90;;;;;;;6.23;88.26;102754.09;10493415;28;20049;-82
2022/01/16 21:03:42;;;;;;;78.32;27.38;;;;;;;6.34;87.38;102753.22;10477497;28;20067;-83
2022/01/16 21:08:46;;;;;;;64.93;26.27;;;;;;;6.48;87.21;102753.34;10509452;28;20553;-85
2022/01/16 21:13:49;;;;;;;69.03;27.33;;;;;;;6.32;88.25;102764.16;10506284;28;20491;-83
2022/01/16 21:18:50;;;;;;;64.80;25.92;;;;;;;6.28;87.99;102757.91;10535866;28;20047;-82
2022/01/16 21:23:52;;;;;;;71.50;26.08;;;;;;;6.32;88.27;102765.03;10511103;28;20051;-83
2022/01/16 21:28:56;;;;;;;65.10;25.70;;;;;;;6.29;87.93;102780.13;10485978;28;20051;-83
2022/01/16 21:33:58;;;;;;;70.45;26.63;;;;;;;6.39;87.57;102783.38;10477969;28;20105;-83
2022/01/16 21:39:00;;;;;;;68.00;26.30;;;;;;;6.33;88.26;102801.75;10484039;28;20110;-82
2022/01/16 21:44:02;;;;;;;66.70;25.02;;;;;;;6.35;87.70;102811.34;10484362;28;20557;-84
2022/01/16 21:49:03;;;;;;;65.95;25.85;;;;;;;6.48;87.53;102812.22;10517530;28;20054;-84
2022/01/16 21:54:05;;;;;;;64.43;26.10;;;;;;;6.47;87.32;102825.81;10559207;28;20479;-84
2022/01/16 21:59:07;;;;;;;66.78;24.65;;;;;;;6.52;87.35;102829.59;10508700;28;20144;-84
2022/01/16 22:04:09;;;;;;;65.80;24.85;;;;;;;6.49;87.37;102837.06;10502003;28;20072;-83
2022/01/16 22:09:11;;;;;;;54.97;22.88;;;;;;;6.55;87.32;102845.19;10475166;28;20040;-85
2022/01/16 22:14:13;;;;;;;63.03;23.42;;;;;;;6.48;87.06;102850.63;10503054;28;20040;-84
2022/01/16 22:19:23;;;;;;;63.35;22.17;;;;;;;6.46;87.56;102844.50;10494455;28;20078;-84
2022/01/16 22:24:24;;;;;;;50.35;23.55;;;;;;;6.39;87.58;102847.41;10475146;28;20037;-84
2022/01/16 22:29:26;;;;;;;65.93;22.05;;;;;;;6.50;87.14;102851.66;10476657;28;20036;-84
2022/01/16 22:34:28;;;;;;;68.95;21.88;;;;;;;6.50;87.35;102855.09;10476276;28;20044;-82
2022/01/16 22:39:30;;;;;;;57.05;21.45;;;;;;;6.35;87.59;102857.41;10476987;28;20076;-83
2022/01/16 22:44:33;;;;;;;52.70;21.30;;;;;;;6.53;87.43;102856.09;10475808;28;20094;-84
2022/01/16 22:49:36;;;;;;;53.42;19.48;;;;;;;6.53;87.19;102851.88;10487088;28;20044;-83
2022/01/16 22:54:39;;;;;;;66.03;20.10;;;;;;;6.54;87.74;102861.34;10482010;28;20572;-84
2022/01/16 22:59:40;;;;;;;45.50;18.52;;;;;;;6.54;86.66;102863.91;10475811;28;20036;-85
2022/01/16 23:04:43;;;;;;;44.35;16.98;;;;;;;6.55;87.34;102870.81;10480786;28;20090;-85
2022/01/16 23:09:45;;;;;;;35.28;14.10;;;;;;;6.49;86.80;102884.03;10486898;28;20407;-83
2022/01/16 23:14:47;;;;;;;37.00;14.55;;;;;;;6.62;85.31;102897.78;10469623;28;20955;-84
2022/01/16 23:19:49;;;;;;;44.80;12.95;;;;;;;6.62;84.98;102903.78;10462733;28;20053;-84
2022/01/16 23:24:52;;;;;;;28.02;11.32;;;;;;;6.65;84.31;102904.00;10477955;28;20044;-85
2022/01/16 23:29:54;;;;;;;31.83;11.75;;;;;;;6.66;84.76;102913.47;10478431;28;20557;-83
2022/01/16 23:34:55;;;;;;;35.40;12.20;;;;;;;6.72;83.94;102915.59;10473283;28;20471;-85
2022/01/16 23:39:57;;;;;;;40.20;11.70;;;;;;;6.72;84.53;102935.19;10485251;28;20044;-85
2022/01/16 23:45:00;;;;;;;34.70;10.55;;;;;;;6.58;84.09;102931.59;10483424;28;20036;-81